createdAt,value
2023-05-24T03:33:05.626Z,49.23
2023-05-24T03:35:32.396Z,51.71
2023-05-24T03:37:59.039Z,51.89
2023-05-24T03:40:26.182Z,52.07
2023-05-24T03:42:52.767Z,53.53
2023-05-24T03:45:27.103Z,54.38
2023-05-24T03:48:01.578Z,53.94
2023-05-24T03:50:28.197Z,51.02
2023-05-24T03:52:54.769Z,52.51
2023-05-24T03:55:21.698Z,52.73
2023-05-24T03:57:48.345Z,53.37
2023-05-24T04:00:15.410Z,51.02
2023-05-24T04:02:42.325Z,53.78
2023-05-24T04:05:12.384Z,53.36
2023-05-24T04:07:39.380Z,54.38
2023-05-24T04:10:07.724Z,53.52
2023-05-24T04:12:35.305Z,53.55
2023-05-24T04:15:01.930Z,54.42
2023-05-24T04:17:30.884Z,53.47
2023-05-24T04:19:57.626Z,54.41
2023-05-24T04:22:25.743Z,51.46
2023-05-24T04:24:52.852Z,56.21
2023-05-24T04:27:19.557Z,54.93
2023-05-24T04:29:49.962Z,54.31
2023-05-24T04:32:18.045Z,55.05
2023-05-24T04:34:46.073Z,56.78
2023-05-24T04:37:17.454Z,58.60
2023-05-24T04:39:45.684Z,59.09
2023-05-24T04:42:13.162Z,56.41
2023-05-24T04:44:43.119Z,56.17
2023-05-24T04:47:10.892Z,56.24
2023-05-24T04:49:40.616Z,57.21
2023-05-24T04:52:08.067Z,55.45
2023-05-24T04:54:34.879Z,59.26
2023-05-24T04:57:01.665Z,60.10
2023-05-24T04:59:28.276Z,58.86
2023-05-24T05:01:54.874Z,55.05
2023-05-24T05:04:21.523Z,56.36
2023-05-24T05:06:48.779Z,56.33
2023-05-24T05:09:16.015Z,58.65
2023-05-24T05:11:42.934Z,57.60
2023-05-24T05:14:09.926Z,57.48
2023-05-24T05:16:37.047Z,56.16
2023-05-24T05:19:05.071Z,57.04
2023-05-24T05:21:36.613Z,56.44
2023-05-24T05:24:04.280Z,55.92
2023-05-24T05:26:31.265Z,54.52
2023-05-24T05:28:58.299Z,55.08
2023-05-24T05:31:25.290Z,53.86
2023-05-24T05:33:51.939Z,54.26
2023-05-24T05:36:18.770Z,52.59
2023-05-24T05:38:45.458Z,53.13
2023-05-24T05:41:11.973Z,52.17
2023-05-24T05:43:39.231Z,52.06
2023-05-24T05:46:06.385Z,52.65
2023-05-24T05:48:33.037Z,51.87
2023-05-24T05:50:59.951Z,51.78
2023-05-24T05:53:26.599Z,51.62
2023-05-24T05:55:53.235Z,51.18
2023-05-24T05:58:19.807Z,51.85
2023-05-24T06:00:46.417Z,51.68
2023-05-24T06:03:13.204Z,52.32
2023-05-24T06:05:40.039Z,52.87
2023-05-24T06:08:06.571Z,51.37
2023-05-24T06:10:33.224Z,51.65
2023-05-24T06:13:01.838Z,51.12
2023-05-24T06:15:28.433Z,51.61
2023-05-24T06:17:55.417Z,51.06
2023-05-24T06:20:22.157Z,51.31
2023-05-24T06:22:53.527Z,51.49
2023-05-24T06:25:21.198Z,51.50
2023-05-24T06:27:47.951Z,51.35
2023-05-24T06:30:14.786Z,51.86
2023-05-24T06:32:41.839Z,51.43
2023-05-24T06:35:09.181Z,50.85
2023-05-24T06:37:36.229Z,50.39
2023-05-24T06:40:05.711Z,50.81
2023-05-24T06:42:32.349Z,50.16
2023-05-24T06:44:58.917Z,50.37
2023-05-24T06:47:25.740Z,50.18
2023-05-24T06:49:52.483Z,50.04
2023-05-24T06:52:19.038Z,50.17
2023-05-24T06:54:45.604Z,49.52
2023-05-24T06:57:12.147Z,49.74
2023-05-24T06:59:38.884Z,50.72
2023-05-24T07:02:05.554Z,49.67
2023-05-24T07:04:32.622Z,50.28
2023-05-24T07:06:59.461Z,50.02
2023-05-24T07:09:26.091Z,49.37
2023-05-24T07:11:53.031Z,49.99
2023-05-24T07:14:19.748Z,49.06
2023-05-24T07:16:46.957Z,49.33
2023-05-24T07:19:13.873Z,48.90
2023-05-24T07:21:40.549Z,49.54
2023-05-24T07:24:07.196Z,49.51
2023-05-24T07:26:33.905Z,48.89
2023-05-24T07:29:00.872Z,49.29
2023-05-24T07:31:29.945Z,49.20
2023-05-24T07:33:56.526Z,49.69
2023-05-24T07:36:23.330Z,49.56
2023-05-24T07:38:50.113Z,48.92
2023-05-24T07:41:17.204Z,49.07
2023-05-24T07:43:43.873Z,49.32
2023-05-24T07:46:10.663Z,49.17
2023-05-24T07:48:37.622Z,49.22
2023-05-24T07:51:04.216Z,49.00
2023-05-24T07:53:30.762Z,49.54
2023-05-24T07:55:57.349Z,49.38
2023-05-24T07:58:23.921Z,49.60
2023-05-24T08:00:50.946Z,48.25
2023-05-24T08:03:18.028Z,47.27
2023-05-24T08:05:45.164Z,47.49
2023-05-24T08:08:12.006Z,47.03
2023-05-24T08:10:38.541Z,48.53
2023-05-24T08:13:05.846Z,46.73
2023-05-24T08:15:32.439Z,46.84
2023-05-24T08:17:59.008Z,47.92
2023-05-24T08:20:25.728Z,47.12
2023-05-24T08:22:52.405Z,47.46
2023-05-24T08:25:19.150Z,48.26
2023-05-24T08:27:45.924Z,47.49
2023-05-24T08:30:14.395Z,47.93
2023-05-24T08:32:41.165Z,47.93
2023-05-24T08:35:20.128Z,48.56
2023-05-24T08:37:49.432Z,47.55
2023-05-24T08:40:16.954Z,47.56
2023-05-24T08:42:46.149Z,47.60
2023-05-24T08:45:14.849Z,47.26
2023-05-24T08:47:42.718Z,47.44
2023-05-24T08:50:09.859Z,48.21
2023-05-24T08:52:36.896Z,47.13
2023-05-24T08:55:07.710Z,47.80
2023-05-24T08:57:35.918Z,47.61
2023-05-24T09:00:02.714Z,47.56
2023-05-24T09:02:30.585Z,48.07
2023-05-24T09:04:57.397Z,47.72
2023-05-24T09:07:24.693Z,47.38
2023-05-24T09:09:58.332Z,47.40
2023-05-24T09:12:36.479Z,47.29
2023-05-24T09:15:06.874Z,47.46
2023-05-24T09:17:35.610Z,47.18
2023-05-24T09:20:04.587Z,47.07
2023-05-24T09:22:31.524Z,48.13
2023-05-24T09:25:01.853Z,49.27
2023-05-24T09:27:31.909Z,49.50
2023-05-24T09:29:59.005Z,49.77
2023-05-24T09:32:26.104Z,50.15
2023-05-24T09:34:55.405Z,49.38
2023-05-24T09:37:29.712Z,49.67
2023-05-24T09:39:58.742Z,50.53
2023-05-24T09:42:27.402Z,48.98
2023-05-24T09:45:09.433Z,50.57
2023-05-24T09:47:38.091Z,49.87
2023-05-24T09:50:07.534Z,49.65
2023-05-24T09:52:37.768Z,50.56
2023-05-24T09:55:18.304Z,50.24
2023-05-24T09:57:50.374Z,50.40
2023-05-24T10:00:23.359Z,50.14
2023-05-24T10:03:04.309Z,50.26
2023-05-24T10:05:31.474Z,50.69
2023-05-24T10:07:59.005Z,50.59
2023-05-24T10:10:29.658Z,50.71
2023-05-24T10:13:00.596Z,50.94
2023-05-24T10:15:27.899Z,51.35
2023-05-24T10:17:56.733Z,51.54
2023-05-24T10:20:27.145Z,51.14
2023-05-24T10:22:59.757Z,52.13
2023-05-24T10:25:28.724Z,51.88
2023-05-24T10:28:06.851Z,51.59
2023-05-24T10:30:51.841Z,51.15
2023-05-24T10:33:21.878Z,51.13
2023-05-24T10:35:49.156Z,51.81
2023-05-24T10:38:15.969Z,50.76
2023-05-24T10:40:43.798Z,50.14
2023-05-24T10:43:10.691Z,50.09
2023-05-24T10:45:41.217Z,50.06
2023-05-24T10:48:14.022Z,49.67
2023-05-24T10:50:42.256Z,49.64
2023-05-24T10:53:13.340Z,49.59
2023-05-24T10:56:04.177Z,49.46
2023-05-24T10:58:58.166Z,50.04
2023-05-24T11:01:33.873Z,50.34
2023-05-24T11:04:16.022Z,49.67
2023-05-24T11:07:03.930Z,49.84
2023-05-24T11:09:32.045Z,49.79
2023-05-24T11:12:08.996Z,49.64
2023-05-24T11:14:40.096Z,49.41
2023-05-24T11:17:08.093Z,49.16
2023-05-24T11:19:39.342Z,48.66
2023-05-24T11:22:09.516Z,48.55
2023-05-24T11:24:37.124Z,48.20
2023-05-24T11:27:04.089Z,48.24
2023-05-24T11:29:30.958Z,47.87
2023-05-24T11:32:05.419Z,47.98
2023-05-24T11:34:32.904Z,48.00
2023-05-24T11:37:00.804Z,48.29
2023-05-24T11:39:35.661Z,48.26
2023-05-24T11:42:05.154Z,48.16
2023-05-24T11:44:32.883Z,48.45
2023-05-24T11:47:04.686Z,48.65
2023-05-24T11:49:31.369Z,49.44
2023-05-24T11:52:00.878Z,49.23
2023-05-24T11:54:28.822Z,49.78
2023-05-24T11:56:55.990Z,49.35
2023-05-24T11:59:25.747Z,49.97
2023-05-24T12:02:06.431Z,49.49
2023-05-24T12:04:35.103Z,50.02
2023-05-24T12:07:02.427Z,50.44
2023-05-24T12:09:29.537Z,50.82
2023-05-24T12:11:57.868Z,51.04
2023-05-24T12:14:27.669Z,50.74
2023-05-24T12:16:57.929Z,50.15
2023-05-24T12:21:59.595Z,50.02
2023-05-24T12:24:27.198Z,50.13
2023-05-24T12:27:08.284Z,50.40
2023-05-24T12:29:41.617Z,50.12
2023-05-24T12:32:13.995Z,51.28
2023-05-24T12:34:43.238Z,50.29
2023-05-24T12:37:12.994Z,50.45
2023-05-24T12:39:43.040Z,50.00
2023-05-24T12:42:12.402Z,50.71
2023-05-24T12:44:39.919Z,50.23
2023-05-24T12:47:08.435Z,50.16
2023-05-24T12:49:35.455Z,50.76
2023-05-24T12:52:02.280Z,49.68
2023-05-24T12:54:29.433Z,50.88
2023-05-24T12:56:57.830Z,50.96
2023-05-24T12:59:25.844Z,50.89
2023-05-24T13:01:53.154Z,51.07
2023-05-24T13:04:21.617Z,51.17
2023-05-24T13:06:48.964Z,51.80
2023-05-24T13:09:18.222Z,52.75
2023-05-24T13:11:45.674Z,51.92
2023-05-24T13:14:12.880Z,52.16
2023-05-24T13:16:39.851Z,52.22
2023-05-24T13:19:06.660Z,52.60
2023-05-24T13:21:33.919Z,52.69
2023-05-24T13:24:00.942Z,52.39
2023-05-24T13:26:27.816Z,52.63
2023-05-24T13:29:26.602Z,51.70
2023-05-24T13:31:41.998Z,51.41
2023-05-24T13:34:11.100Z,50.88
2023-05-24T13:36:40.859Z,51.16
2023-05-24T13:41:40.105Z,51.87
2023-05-24T13:44:07.453Z,50.78
2023-05-24T13:46:34.335Z,51.15
2023-05-24T13:49:01.056Z,51.29
2023-05-24T13:51:28.170Z,51.37
2023-05-24T13:53:55.734Z,50.84
2023-05-24T13:56:24.345Z,50.04
2023-05-24T13:58:51.163Z,49.67
2023-05-24T14:01:17.945Z,48.82
2023-05-24T14:03:44.577Z,49.62
2023-05-24T14:06:11.322Z,49.36
2023-05-24T14:08:37.981Z,48.66
2023-05-24T14:11:04.658Z,47.79
2023-05-24T14:14:29.829Z,47.86
2023-05-24T14:16:19.067Z,48.21
2023-05-24T14:18:46.124Z,47.80
2023-05-24T14:21:12.765Z,48.35
2023-05-24T14:23:39.489Z,48.40
2023-05-24T14:26:06.230Z,48.17
2023-05-24T14:28:32.876Z,48.07
2023-05-24T14:30:59.485Z,48.16
2023-05-24T14:33:26.096Z,48.34
2023-05-24T14:35:53.391Z,48.57
2023-05-24T14:38:20.295Z,48.38
2023-05-24T14:40:49.908Z,48.44
2023-05-24T14:43:16.923Z,49.09
2023-05-24T14:45:43.908Z,49.06
2023-05-24T14:48:12.038Z,48.51
2023-05-24T14:50:41.239Z,47.94
2023-05-24T14:53:14.208Z,48.01
2023-05-24T14:55:43.159Z,48.33
2023-05-24T14:58:12.104Z,48.12
2023-05-24T15:00:39.760Z,48.03
2023-05-24T15:03:07.998Z,48.08
2023-05-24T15:05:35.860Z,47.35
2023-05-24T15:08:02.629Z,47.48
2023-05-24T15:10:29.563Z,47.19
2023-05-24T15:12:56.283Z,47.43
2023-05-24T15:15:23.184Z,46.73
2023-05-24T15:17:49.865Z,47.29
2023-05-24T15:20:16.737Z,46.77
2023-05-24T15:22:43.674Z,46.84
2023-05-24T15:25:11.511Z,47.29
2023-05-24T15:27:39.564Z,47.55
2023-05-24T15:30:07.537Z,47.14
2023-05-24T15:32:34.601Z,47.61
2023-05-24T15:35:01.430Z,47.37
2023-05-24T15:37:28.289Z,47.58
2023-05-24T15:39:55.005Z,47.42
2023-05-24T15:42:23.683Z,47.24
2023-05-24T15:44:50.886Z,47.43
2023-05-24T15:47:19.727Z,47.46
2023-05-24T15:49:47.946Z,47.43
2023-05-24T15:52:14.609Z,47.19
2023-05-24T15:54:41.387Z,47.62
2023-05-24T15:57:08.105Z,47.16
2023-05-24T15:59:36.993Z,47.47
2023-05-24T16:02:03.727Z,47.67
2023-05-24T16:04:30.378Z,46.79
2023-05-24T16:06:57.072Z,46.66
2023-05-24T16:09:23.835Z,46.37
2023-05-24T16:11:50.652Z,46.46
2023-05-24T16:14:17.545Z,46.81
2023-05-24T16:16:44.629Z,46.68
2023-05-24T16:19:11.686Z,46.61
2023-05-24T16:21:38.458Z,46.69
2023-05-24T16:24:05.900Z,47.33
2023-05-24T16:26:32.842Z,46.94
2023-05-24T16:28:59.894Z,47.41
2023-05-24T16:31:26.697Z,46.52
2023-05-24T16:33:53.486Z,47.09
2023-05-24T16:36:21.330Z,47.13
2023-05-24T16:38:47.989Z,48.17
2023-05-24T16:41:14.679Z,48.31
2023-05-24T16:43:41.396Z,48.71
2023-05-24T16:46:08.233Z,48.99
2023-05-24T16:48:35.082Z,49.19
2023-05-24T16:51:01.881Z,48.88
2023-05-24T16:53:28.941Z,49.14
2023-05-24T16:55:57.235Z,49.10
2023-05-24T16:58:25.524Z,49.12
2023-05-24T17:00:54.666Z,49.67
2023-05-24T17:03:30.317Z,49.35
2023-05-24T17:06:03.343Z,49.50
2023-05-24T17:08:30.428Z,49.40
2023-05-24T17:10:57.300Z,49.68
2023-05-24T17:13:24.041Z,49.35
2023-05-24T17:15:53.893Z,49.36
2023-05-24T17:18:30.312Z,49.49
2023-05-24T17:20:58.387Z,49.19
2023-05-24T17:23:26.290Z,49.33
2023-05-24T17:25:53.766Z,49.58
2023-05-24T17:28:20.411Z,50.15
2023-05-24T17:30:47.724Z,49.93
2023-05-24T17:33:14.407Z,49.80
2023-05-24T17:35:43.060Z,49.81
2023-05-24T17:38:09.993Z,50.07
2023-05-24T17:40:36.693Z,50.04
2023-05-24T17:43:03.470Z,50.37
2023-05-24T17:45:30.293Z,50.03
2023-05-24T17:47:57.100Z,50.35
2023-05-24T17:50:23.852Z,50.24
2023-05-24T17:52:50.994Z,50.27
2023-05-24T17:55:17.662Z,50.36
2023-05-24T17:57:44.727Z,50.52
2023-05-24T18:00:12.745Z,50.52
2023-05-24T18:02:39.410Z,50.96
2023-05-24T18:05:06.852Z,50.69
2023-05-24T18:07:33.574Z,50.78
2023-05-24T18:10:00.880Z,50.98
2023-05-24T18:12:27.587Z,50.91
2023-05-24T18:14:54.293Z,51.11
2023-05-24T18:17:21.146Z,51.50
2023-05-24T18:19:54.304Z,51.23
2023-05-24T18:22:21.379Z,51.53
2023-05-24T18:24:48.058Z,51.49
2023-05-24T18:27:14.725Z,51.41
2023-05-24T18:29:41.523Z,51.56
2023-05-24T18:32:08.536Z,51.63
2023-05-24T18:34:35.272Z,51.82
2023-05-24T18:37:01.993Z,51.50
2023-05-24T18:39:28.710Z,51.76
2023-05-24T18:41:55.370Z,51.53
2023-05-24T18:44:21.995Z,52.41
2023-05-24T18:46:48.693Z,53.84
2023-05-24T18:49:21.582Z,54.58
2023-05-24T18:51:48.252Z,54.17
2023-05-24T18:54:15.040Z,54.65
2023-05-24T18:56:42.293Z,55.03
2023-05-24T18:59:10.958Z,54.84
2023-05-24T19:01:38.937Z,53.75
2023-05-24T19:04:05.606Z,53.67
2023-05-24T19:06:32.691Z,53.43
2023-05-24T19:09:00.589Z,51.86
2023-05-24T19:11:29.515Z,51.12
2023-05-24T19:13:56.217Z,50.31
2023-05-24T19:16:22.884Z,50.27
2023-05-24T19:18:49.622Z,50.02
2023-05-24T19:21:16.380Z,49.94
2023-05-24T19:23:43.123Z,50.35
2023-05-24T19:26:10.086Z,50.04
2023-05-24T19:28:40.383Z,50.49
2023-05-24T19:31:07.427Z,50.34
2023-05-24T19:33:35.041Z,50.41
2023-05-24T19:36:02.547Z,50.84
2023-05-24T19:38:29.325Z,50.80
2023-05-24T19:40:56.033Z,51.08
2023-05-24T19:43:22.720Z,51.71
2023-05-24T19:45:52.518Z,52.46
2023-05-24T19:48:19.213Z,51.88
2023-05-24T19:50:48.579Z,51.60
2023-05-24T19:53:16.273Z,51.42
2023-05-24T19:55:43.449Z,51.94
2023-05-24T19:58:10.245Z,52.01
2023-05-24T20:00:36.955Z,52.08
2023-05-24T20:03:03.840Z,52.06
2023-05-24T20:05:30.704Z,52.11
2023-05-24T20:07:57.427Z,52.25
2023-05-24T20:10:24.218Z,52.38
2023-05-24T20:12:51.062Z,52.40
2023-05-24T20:15:18.342Z,52.63
2023-05-24T20:17:48.656Z,52.83
2023-05-24T20:20:15.633Z,52.84
2023-05-24T20:22:42.414Z,53.32
2023-05-24T20:25:09.369Z,53.36
2023-05-24T20:27:36.132Z,53.65
2023-05-24T20:30:03.078Z,53.50
2023-05-24T20:32:29.813Z,53.63
2023-05-24T20:34:56.563Z,53.84
2023-05-24T20:37:23.389Z,53.79
2023-05-24T20:39:50.035Z,54.04
2023-05-24T20:42:16.826Z,51.71
2023-05-24T20:44:43.630Z,53.71
2023-05-24T20:47:10.710Z,53.66
2023-05-24T20:49:37.416Z,53.84
2023-05-24T20:52:04.805Z,53.67
2023-05-24T20:54:31.513Z,54.17
2023-05-24T20:56:59.747Z,54.28
2023-05-24T20:59:26.449Z,54.52
2023-05-24T21:01:53.744Z,54.23
2023-05-24T21:04:20.450Z,54.70
2023-05-24T21:06:47.153Z,54.30
2023-05-24T21:09:13.831Z,54.66
2023-05-24T21:11:40.369Z,52.15
2023-05-24T21:14:07.032Z,54.03
2023-05-24T21:16:33.761Z,54.21
2023-05-24T21:19:01.133Z,54.28
2023-05-24T21:21:28.118Z,54.28
2023-05-24T21:23:55.998Z,54.81
2023-05-24T21:26:26.611Z,54.60
2023-05-24T21:28:53.240Z,55.24
2023-05-24T21:31:20.925Z,52.50
2023-05-24T21:33:47.635Z,52.72
